Time;durP1;ratioP1;P1;durP2;ratioP2;P2;SDS_P1;SDS_P2;PMS_P1;PMS_P2;Temp;Humidity;BMP_temperature;BMP_pressure;BME280_temperature;BME280_humidity;BME280_pressure;Samples;Min_cycle;Max_cycle;Signal;HPM_P1;HPM_P2
2021/08/12 00:00:29;;;;;;;6.05;3.47;;;16.30;99.90;;;;;;5074710;28;20055;-82
2021/08/12 00:02:55;;;;;;;4.72;4.10;;;16.30;99.90;;;;;;5076842;27;20063;-82
2021/08/12 00:05:21;;;;;;;5.72;4.13;;;16.30;99.90;;;;;;5073952;28;20035;-82
2021/08/12 00:07:48;;;;;;;6.40;4.63;;;16.20;99.90;;;;;;5074396;28;20482;-82
2021/08/12 00:10:14;;;;;;;6.18;4.65;;;16.20;99.90;;;;;;5024854;28;20066;-82
2021/08/12 00:12:41;;;;;;;5.70;3.90;;;16.10;99.90;;;;;;5058330;28;20036;-82
2021/08/12 00:15:08;;;;;;;8.55;4.68;;;16.10;99.90;;;;;;5050987;28;20064;-82
2021/08/12 00:17:37;;;;;;;5.07;4.05;;;16.10;99.90;;;;;;5068294;28;20127;-82
2021/08/12 00:20:04;;;;;;;5.78;4.32;;;16.10;99.90;;;;;;5040481;28;20496;-82
2021/08/12 00:22:30;;;;;;;5.40;4.60;;;16.00;99.90;;;;;;5022981;28;20499;-82
2021/08/12 00:24:57;;;;;;;4.97;3.92;;;16.00;99.90;;;;;;5017492;28;20450;-82
2021/08/12 00:27:23;;;;;;;5.72;4.38;;;16.00;99.90;;;;;;5068428;28;20421;-82
2021/08/12 00:29:51;;;;;;;5.53;4.30;;;16.00;99.90;;;;;;5059509;28;20040;-82
2021/08/12 00:32:17;;;;;;;5.43;3.88;;;15.90;99.90;;;;;;5059308;28;20037;-82
2021/08/12 00:34:44;;;;;;;6.00;4.20;;;15.90;99.90;;;;;;5052069;28;20046;-82
2021/08/12 00:37:10;;;;;;;7.97;5.50;;;15.90;99.90;;;;;;5067098;28;20044;-82
2021/08/12 00:39:37;;;;;;;5.47;4.88;;;15.90;99.90;;;;;;5056356;28;20939;-82
2021/08/12 00:42:08;;;;;;;5.60;4.13;;;15.90;99.90;;;;;;5051943;28;20045;-82
2021/08/12 00:44:35;;;;;;;7.53;4.70;;;15.90;99.90;;;;;;5033307;28;20418;-82
2021/08/12 00:47:03;;;;;;;6.00;4.43;;;15.90;99.90;;;;;;5033388;28;20045;-81
2021/08/12 00:49:37;;;;;;;5.95;4.65;;;15.80;99.90;;;;;;5067741;28;20036;-82
2021/08/12 00:52:09;;;;;;;6.18;4.55;;;15.80;99.90;;;;;;5050538;28;20044;-82
2021/08/12 00:54:39;;;;;;;5.55;4.68;;;15.80;99.90;;;;;;5049946;28;20078;-82
2021/08/12 00:57:08;;;;;;;6.78;4.90;;;15.70;99.90;;;;;;5066315;28;20036;-82
2021/08/12 00:59:39;;;;;;;6.47;4.50;;;15.70;99.90;;;;;;5041504;28;20044;-82
2021/08/12 01:02:10;;;;;;;7.57;4.32;;;15.70;99.90;;;;;;5050205;28;20051;-81
2021/08/12 01:04:42;;;;;;;5.15;4.55;;;15.60;99.90;;;;;;5051804;28;20048;-82
2021/08/12 01:07:16;;;;;;;7.00;5.28;;;15.60;99.90;;;;;;5069777;28;20043;-82
2021/08/12 01:09:52;;;;;;;6.53;4.82;;;15.60;99.90;;;;;;5031928;28;20044;-82
2021/08/12 01:12:37;;;;;;;5.10;4.53;;;15.60;99.90;;;;;;5078560;28;20043;-83
2021/08/12 01:15:08;;;;;;;5.70;3.95;;;15.50;99.90;;;;;;5060777;28;20055;-82
2021/08/12 01:18:02;;;;;;;5.53;4.33;;;15.50;99.90;;;;;;5071333;28;20044;-83
2021/08/12 01:20:47;;;;;;;7.57;5.10;;;15.50;99.90;;;;;;5044994;28;20297;-82
2021/08/12 01:23:15;;;;;;;9.48;5.15;;;15.50;99.90;;;;;;5071612;28;20261;-82
2021/08/12 01:25:45;;;;;;;7.13;5.05;;;15.50;99.90;;;;;;5037436;28;20051;-82
2021/08/12 01:28:17;;;;;;;5.20;4.43;;;15.50;99.90;;;;;;5085093;28;20047;-81
2021/08/12 01:31:16;;;;;;;6.20;4.38;;;15.50;99.90;;;;;;5084368;28;20083;-81
2021/08/12 01:34:03;;;;;;;7.63;5.47;;;15.50;99.90;;;;;;5054783;28;20055;-81
2021/08/12 01:36:46;;;;;;;6.30;4.97;;;15.40;99.90;;;;;;5088929;28;20036;-83
2021/08/12 01:39:15;;;;;;;6.95;5.75;;;15.40;99.90;;;;;;5053001;28;20040;-82
2021/08/12 01:41:46;;;;;;;7.22;6.15;;;15.30;99.90;;;;;;5068719;28;20028;-82
2021/08/12 01:44:15;;;;;;;7.28;5.63;;;15.40;99.90;;;;;;5054072;28;20047;-81
2021/08/12 01:46:46;;;;;;;7.93;5.97;;;15.40;99.90;;;;;;5087375;28;20360;-82
2021/08/12 01:49:15;;;;;;;7.43;6.22;;;15.30;99.90;;;;;;5051920;28;20032;-81
2021/08/12 01:51:46;;;;;;;7.57;6.13;;;15.30;99.90;;;;;;5056865;28;20039;-81
2021/08/12 01:54:17;;;;;;;7.53;6.10;;;15.40;99.90;;;;;;5053422;28;20070;-81
2021/08/12 01:56:45;;;;;;;6.82;5.95;;;15.30;99.90;;;;;;5065040;28;20047;-81
2021/08/12 01:59:18;;;;;;;9.57;6.20;;;15.40;99.90;;;;;;5057538;28;20391;-81
2021/08/12 02:01:47;;;;;;;8.00;6.70;;;15.40;99.90;;;;;;5052090;28;20533;-81
2021/08/12 02:04:18;;;;;;;8.00;6.07;;;15.40;99.90;;;;;;5051988;28;20044;-82
2021/08/12 02:06:48;;;;;;;11.57;6.63;;;15.40;99.90;;;;;;5074462;28;20059;-81
2021/08/12 02:09:19;;;;;;;7.18;6.43;;;15.40;99.90;;;;;;5051168;28;20046;-81
2021/08/12 02:11:47;;;;;;;8.68;6.22;;;15.40;99.90;;;;;;5068473;28;20040;-82
2021/08/12 02:14:17;;;;;;;7.53;6.20;;;15.50;99.90;;;;;;5035175;28;20070;-82
2021/08/12 02:16:44;;;;;;;9.25;6.72;;;15.40;99.90;;;;;;5066549;28;20054;-82
2021/08/12 02:19:11;;;;;;;7.32;6.18;;;15.50;99.90;;;;;;5051058;28;20047;-81
2021/08/12 02:21:44;;;;;;;7.93;6.43;;;15.50;99.90;;;;;;5067496;28;20036;-82
2021/08/12 02:24:34;;;;;;;8.80;7.03;;;15.50;99.90;;;;;;5050899;28;20043;-82
2021/08/12 02:27:15;;;;;;;9.43;7.28;;;15.50;99.90;;;;;;5068031;28;20039;-82
2021/08/12 02:29:42;;;;;;;7.75;6.95;;;15.60;99.90;;;;;;5049255;28;20044;-82
2021/08/12 02:32:15;;;;;;;9.85;7.70;;;15.60;99.90;;;;;;5051260;28;20050;-82
2021/08/12 02:34:44;;;;;;;9.95;6.60;;;15.60;99.90;;;;;;5065800;28;20055;-82
2021/08/12 02:37:18;;;;;;;8.63;6.82;;;15.60;99.90;;;;;;5067092;28;20052;-82
2021/08/12 02:39:47;;;;;;;7.20;6.50;;;15.50;99.90;;;;;;5047448;28;20043;-82
2021/08/12 02:42:33;;;;;;;8.50;7.57;;;15.50;99.90;;;;;;5050625;28;20825;-81
2021/08/12 02:45:00;;;;;;;7.93;7.13;;;15.40;99.90;;;;;;5057781;28;20040;-82
2021/08/12 02:47:28;;;;;;;9.75;7.05;;;15.40;99.90;;;;;;5051185;28;20483;-82
2021/08/12 02:49:56;;;;;;;8.93;7.45;;;15.40;99.90;;;;;;5053863;28;20046;-82
2021/08/12 02:52:26;;;;;;;7.95;6.97;;;15.30;99.90;;;;;;5085234;28;20704;-81
2021/08/12 02:54:59;;;;;;;8.25;6.13;;;15.30;99.90;;;;;;5067580;28;20052;-82
2021/08/12 02:57:31;;;;;;;8.07;6.68;;;15.30;99.90;;;;;;5055993;28;20205;-82
2021/08/12 02:59:59;;;;;;;8.27;6.30;;;15.30;99.90;;;;;;5068984;28;20044;-82
2021/08/12 03:02:28;;;;;;;6.90;6.20;;;15.30;99.90;;;;;;5033347;28;20053;-82
2021/08/12 03:04:55;;;;;;;8.23;6.82;;;15.20;99.90;;;;;;5087438;28;20027;-81
2021/08/12 03:07:23;;;;;;;9.77;7.78;;;15.20;99.90;;;;;;5051612;28;20051;-81
2021/08/12 03:09:50;;;;;;;7.57;6.78;;;15.20;99.90;;;;;;5068295;28;20074;-81
2021/08/12 03:12:21;;;;;;;8.15;6.68;;;15.20;99.90;;;;;;5067309;28;20051;-81
2021/08/12 03:14:51;;;;;;;8.50;6.03;;;15.20;99.90;;;;;;5065481;28;20051;-82
2021/08/12 03:17:20;;;;;;;8.90;7.15;;;15.20;99.90;;;;;;5067917;28;20047;-81
2021/08/12 03:19:47;;;;;;;8.45;7.28;;;15.20;99.90;;;;;;5051267;28;20051;-81
2021/08/12 03:22:15;;;;;;;8.40;6.82;;;15.10;99.90;;;;;;5033967;28;20059;-81
2021/08/12 03:24:45;;;;;;;8.20;6.30;;;15.10;99.90;;;;;;5058447;28;20408;-81
2021/08/12 03:27:13;;;;;;;7.97;6.28;;;15.10;99.90;;;;;;5067798;28;20071;-81
2021/08/12 03:29:41;;;;;;;7.15;6.13;;;15.00;99.90;;;;;;5083452;28;20580;-81
2021/08/12 03:32:10;;;;;;;7.53;6.60;;;15.00;99.90;;;;;;5034669;28;20051;-81
2021/08/12 03:34:37;;;;;;;9.65;7.53;;;15.00;99.90;;;;;;5067522;28;20063;-81
2021/08/12 03:37:05;;;;;;;7.90;7.07;;;15.00;99.90;;;;;;5068296;28;20048;-81
2021/08/12 03:39:35;;;;;;;11.30;7.70;;;14.90;99.90;;;;;;5050607;28;20410;-81
2021/08/12 03:42:02;;;;;;;10.95;7.95;;;14.90;99.90;;;;;;5067878;28;20403;-80
2021/08/12 03:44:28;;;;;;;9.23;7.10;;;14.90;99.90;;;;;;5034888;28;20036;-81
2021/08/12 03:46:54;;;;;;;9.55;8.20;;;14.90;99.90;;;;;;5033633;28;20044;-81
2021/08/12 03:49:22;;;;;;;8.90;7.55;;;14.80;99.90;;;;;;5042784;28;20498;-80
2021/08/12 03:51:49;;;;;;;10.10;7.97;;;14.90;99.90;;;;;;5051111;28;20101;-80
2021/08/12 03:54:16;;;;;;;10.70;8.30;;;14.80;99.90;;;;;;5067234;28;20044;-80
2021/08/12 03:56:42;;;;;;;11.13;8.30;;;14.80;99.90;;;;;;5068324;28;20133;-81
2021/08/12 03:59:13;;;;;;;9.75;8.10;;;14.80;99.90;;;;;;5067234;28;20056;-80
2021/08/12 04:01:39;;;;;;;11.90;9.77;;;14.80;99.90;;;;;;5048208;28;20044;-80
2021/08/12 04:04:06;;;;;;;14.13;11.10;;;14.70;99.90;;;;;;5051643;28;20839;-80
2021/08/12 04:06:32;;;;;;;12.73;9.00;;;14.80;99.90;;;;;;5071768;28;20376;-80
2021/08/12 04:08:58;;;;;;;9.55;7.95;;;14.80;99.90;;;;;;5050224;28;20532;-80
2021/08/12 04:11:25;;;;;;;13.13;7.95;;;14.80;99.90;;;;;;5084115;28;20043;-80
2021/08/12 04:13:51;;;;;;;10.65;7.90;;;14.80;99.90;;;;;;5039306;28;20052;-80
2021/08/12 04:16:18;;;;;;;11.32;9.40;;;14.70;99.90;;;;;;5069843;28;20482;-80
2021/08/12 04:18:46;;;;;;;10.75;8.27;;;14.70;99.90;;;;;;5039560;28;20052;-80
2021/08/12 04:21:12;;;;;;;10.93;9.25;;;14.70;99.90;;;;;;5087540;28;20051;-80
2021/08/12 04:23:39;;;;;;;11.23;8.65;;;14.70;99.90;;;;;;5092690;28;20039;-80
2021/08/12 04:26:05;;;;;;;10.55;8.50;;;14.70;99.90;;;;;;5052901;28;20051;-80
2021/08/12 04:28:32;;;;;;;10.88;8.57;;;14.70;99.90;;;;;;5037075;28;20052;-80
2021/08/12 04:30:58;;;;;;;11.55;9.27;;;14.70;99.90;;;;;;5057185;28;20367;-80
2021/08/12 04:33:25;;;;;;;12.20;9.68;;;14.70;99.90;;;;;;5072426;27;20063;-80
2021/08/12 04:35:51;;;;;;;13.00;9.48;;;14.70;99.90;;;;;;5062456;28;20047;-80
2021/08/12 04:38:19;;;;;;;9.45;7.93;;;14.70;99.90;;;;;;5042584;28;20059;-80
2021/08/12 04:40:45;;;;;;;11.25;8.52;;;14.70;99.90;;;;;;5057612;28;20055;-80
2021/08/12 04:43:11;;;;;;;11.52;9.40;;;14.70;99.90;;;;;;5057663;28;20488;-80
2021/08/12 04:45:38;;;;;;;9.40;7.93;;;14.70;99.90;;;;;;5058547;28;20035;-81
2021/08/12 04:48:05;;;;;;;10.18;8.05;;;14.70;99.90;;;;;;5040976;28;20051;-81
2021/08/12 04:50:37;;;;;;;12.57;9.07;;;14.70;99.90;;;;;;5043785;28;20044;-81
2021/08/12 04:53:05;;;;;;;10.90;8.65;;;14.80;99.90;;;;;;5058823;27;20063;-81
2021/08/12 04:55:32;;;;;;;14.02;9.23;;;14.70;99.90;;;;;;5056451;28;20043;-81
2021/08/12 04:57:59;;;;;;;10.30;8.52;;;14.70;99.90;;;;;;5072138;28;20035;-81
2021/08/12 05:00:26;;;;;;;10.02;8.10;;;14.80;99.90;;;;;;5039175;28;20071;-82
2021/08/12 05:02:52;;;;;;;10.63;7.75;;;14.80;99.90;;;;;;5074083;28;20040;-80
2021/08/12 05:05:19;;;;;;;9.68;7.85;;;14.80;99.90;;;;;;5055148;28;20043;-81
2021/08/12 05:07:46;;;;;;;12.23;9.43;;;14.80;99.90;;;;;;5074488;28;20036;-81
2021/08/12 05:10:13;;;;;;;12.38;9.90;;;14.90;99.90;;;;;;5056346;28;20502;-81
2021/08/12 05:12:39;;;;;;;12.35;10.15;;;14.90;99.90;;;;;;5037516;28;20047;-82
2021/08/12 05:15:07;;;;;;;11.68;10.00;;;14.90;99.90;;;;;;5056280;28;20056;-82
2021/08/12 05:17:34;;;;;;;10.52;9.38;;;14.90;99.90;;;;;;5050141;28;20068;-82
2021/08/12 05:20:02;;;;;;;11.38;9.25;;;15.00;99.90;;;;;;5090694;28;20036;-81
2021/08/12 05:22:30;;;;;;;11.00;9.65;;;15.00;99.90;;;;;;5059210;28;20055;-80
2021/08/12 05:24:57;;;;;;;15.20;9.98;;;15.00;99.90;;;;;;5079678;28;20044;-80
2021/08/12 05:27:23;;;;;;;11.35;9.70;;;15.10;99.90;;;;;;5038192;28;20047;-80
2021/08/12 05:29:51;;;;;;;12.73;10.23;;;15.20;99.90;;;;;;5073478;28;20046;-80
2021/08/12 05:32:18;;;;;;;14.10;11.15;;;15.30;99.90;;;;;;5056438;28;20048;-80
2021/08/12 05:34:44;;;;;;;10.60;9.50;;;15.40;99.90;;;;;;5061437;28;20043;-80
2021/08/12 05:37:11;;;;;;;12.77;10.50;;;15.50;99.90;;;;;;5055777;28;20062;-80
2021/08/12 05:39:38;;;;;;;13.60;10.45;;;15.60;99.90;;;;;;5040539;28;20047;-80
2021/08/12 05:42:05;;;;;;;11.95;9.88;;;15.80;99.90;;;;;;5063733;28;20409;-80
2021/08/12 05:44:31;;;;;;;12.45;10.10;;;15.90;99.90;;;;;;5057373;27;20047;-81
2021/08/12 05:46:59;;;;;;;13.35;11.18;;;16.10;99.90;;;;;;5073714;28;20040;-81
2021/08/12 05:49:25;;;;;;;11.75;10.10;;;16.30;99.90;;;;;;5074482;28;20058;-81
2021/08/12 05:51:52;;;;;;;11.23;9.52;;;16.40;99.90;;;;;;5055839;28;20055;-80
2021/08/12 05:54:19;;;;;;;12.45;10.73;;;16.70;99.90;;;;;;5088693;27;20039;-84
2021/08/12 05:56:47;;;;;;;13.13;9.20;;;16.90;99.90;;;;;;5050644;28;20055;-78
2021/08/12 05:59:14;;;;;;;10.77;9.63;;;17.10;99.90;;;;;;5053220;28;20054;-82
2021/08/12 06:01:41;;;;;;;11.10;9.48;;;17.30;99.90;;;;;;5068417;28;20047;-82
2021/08/12 06:04:08;;;;;;;10.40;9.35;;;17.20;99.90;;;;;;5073067;28;20039;-82
2021/08/12 06:06:39;;;;;;;11.98;9.80;;;17.20;99.90;;;;;;5026575;28;20051;-82
2021/08/12 06:09:07;;;;;;;12.73;10.27;;;17.30;99.90;;;;;;5059799;27;20046;-81
2021/08/12 06:11:34;;;;;;;12.18;10.88;;;17.40;99.90;;;;;;5097730;28;20031;-81
2021/08/12 06:14:02;;;;;;;11.15;9.70;;;17.50;99.90;;;;;;5070713;27;20047;-81
2021/08/12 06:16:28;;;;;;;11.05;9.90;;;17.60;99.90;;;;;;5088631;27;20236;-81
2021/08/12 06:18:55;;;;;;;11.80;9.95;;;17.60;99.90;;;;;;5070831;28;20043;-82
2021/08/12 06:21:23;;;;;;;12.70;10.45;;;17.80;99.90;;;;;;5073564;28;20038;-82
2021/08/12 06:23:52;;;;;;;13.50;12.07;;;18.00;99.90;;;;;;5074677;27;20047;-80
2021/08/12 06:26:18;;;;;;;14.73;11.85;;;18.20;99.90;;;;;;5045385;28;20047;-81
2021/08/12 06:28:46;;;;;;;12.85;10.68;;;18.40;99.90;;;;;;5094619;27;20505;-79
2021/08/12 06:31:13;;;;;;;11.27;10.00;;;18.70;99.90;;;;;;5066043;27;20035;-82
2021/08/12 06:33:40;;;;;;;11.05;9.90;;;18.90;99.90;;;;;;5055603;28;20059;-81
2021/08/12 06:36:07;;;;;;;11.88;10.48;;;19.10;99.90;;;;;;5045314;28;20048;-81
2021/08/12 06:38:34;;;;;;;12.57;10.13;;;19.50;99.90;;;;;;5079706;27;20120;-80
2021/08/12 06:41:00;;;;;;;13.07;10.55;;;19.70;99.90;;;;;;5088142;28;20472;-81
2021/08/12 06:43:29;;;;;;;11.95;10.05;;;19.90;99.90;;;;;;5072947;28;20044;-81
2021/08/12 06:46:00;;;;;;;11.55;9.15;;;20.20;99.90;;;;;;5060789;28;20048;-78
2021/08/12 06:48:29;;;;;;;10.75;9.05;;;20.40;99.90;;;;;;5071264;28;20090;-78
2021/08/12 06:50:56;;;;;;;9.38;7.75;;;20.70;99.90;;;;;;5066115;28;20043;-79
2021/08/12 06:53:23;;;;;;;8.32;7.15;;;21.00;99.90;;;;;;5056582;28;20394;-79
2021/08/12 06:55:49;;;;;;;9.38;7.60;;;21.20;99.90;;;;;;5038156;28;20043;-79
2021/08/12 06:58:16;;;;;;;8.98;7.50;;;21.40;99.90;;;;;;5022146;28;20054;-79
2021/08/12 07:00:44;;;;;;;11.48;7.15;;;21.50;99.90;;;;;;5073261;28;20830;-79
2021/08/12 07:03:11;;;;;;;9.15;7.15;;;21.60;99.90;;;;;;5069627;27;20355;-79
2021/08/12 07:05:38;;;;;;;8.25;6.65;;;21.60;99.90;;;;;;5069449;28;20039;-78
2021/08/12 07:08:05;;;;;;;8.48;7.65;;;21.80;99.90;;;;;;5086211;28;20040;-78
2021/08/12 07:10:32;;;;;;;6.78;6.07;;;21.90;99.70;;;;;;5038596;28;20131;-78
2021/08/12 07:12:59;;;;;;;6.82;5.97;;;22.10;99.30;;;;;;5054822;28;20047;-79
2021/08/12 07:15:26;;;;;;;6.95;6.25;;;22.30;98.90;;;;;;5070335;28;20039;-79
2021/08/12 07:17:55;;;;;;;7.22;5.68;;;22.30;98.60;;;;;;5088199;28;20047;-79
2021/08/12 07:20:22;;;;;;;9.60;6.88;;;22.40;98.40;;;;;;5071081;28;20043;-78
2021/08/12 07:22:48;;;;;;;8.27;7.03;;;22.50;98.10;;;;;;5074961;28;20039;-78
2021/08/12 07:25:23;;;;;;;11.98;7.05;;;22.50;97.50;;;;;;5054142;28;20054;-79
2021/08/12 07:27:50;;;;;;;10.68;7.18;;;22.60;97.20;;;;;;5070850;28;20043;-79
2021/08/12 07:30:18;;;;;;;11.52;7.05;;;22.60;97.00;;;;;;5040520;28;20032;-82
2021/08/12 07:32:45;;;;;;;8.35;6.38;;;22.60;96.60;;;;;;5072304;28;20795;-80
2021/08/12 07:35:12;;;;;;;9.30;6.70;;;22.60;96.50;;;;;;5053989;28;20047;-81
2021/08/12 07:37:39;;;;;;;9.73;7.22;;;22.70;96.30;;;;;;5068736;28;20054;-81
2021/08/12 07:40:06;;;;;;;9.32;6.03;;;22.80;96.10;;;;;;5094654;28;20040;-81
2021/08/12 07:42:32;;;;;;;7.75;6.35;;;22.80;95.90;;;;;;5070862;28;20513;-81
2021/08/12 07:45:01;;;;;;;5.95;5.32;;;22.90;95.70;;;;;;5078674;28;20059;-81
2021/08/12 07:47:30;;;;;;;6.93;5.90;;;23.10;95.60;;;;;;5020323;28;20406;-81
2021/08/12 07:49:57;;;;;;;6.55;5.68;;;23.20;95.40;;;;;;5074723;28;20035;-81
2021/08/12 07:52:24;;;;;;;6.43;4.82;;;23.30;95.10;;;;;;5039322;28;20050;-81
2021/08/12 07:54:50;;;;;;;9.05;5.20;;;23.50;94.90;;;;;;5074924;28;20040;-82
2021/08/12 07:57:17;;;;;;;4.95;4.30;;;23.60;94.70;;;;;;5070163;28;20058;-81
2021/08/12 07:59:43;;;;;;;7.22;4.85;;;23.70;94.40;;;;;;5087031;28;20031;-82
2021/08/12 08:02:10;;;;;;;5.32;4.40;;;23.90;94.10;;;;;;5037833;28;20059;-81
2021/08/12 08:04:36;;;;;;;8.70;5.80;;;24.00;93.80;;;;;;5056132;28;20043;-82
2021/08/12 08:07:03;;;;;;;6.35;5.20;;;24.10;93.10;;;;;;5038674;28;20048;-82
2021/08/12 08:09:29;;;;;;;5.38;4.40;;;24.10;92.50;;;;;;5039909;28;20790;-79
2021/08/12 08:11:56;;;;;;;6.72;4.22;;;24.10;92.20;;;;;;5021472;28;20044;-79
2021/08/12 08:14:22;;;;;;;4.07;3.13;;;24.20;92.00;;;;;;5059126;28;20044;-80
2021/08/12 08:16:49;;;;;;;5.45;4.15;;;24.20;91.60;;;;;;5073454;28;20035;-80
2021/08/12 08:19:15;;;;;;;4.53;2.80;;;24.30;91.30;;;;;;5074443;28;20474;-79
2021/08/12 08:21:41;;;;;;;4.38;3.35;;;24.30;91.30;;;;;;5077187;27;20117;-80
2021/08/12 08:24:09;;;;;;;4.85;3.92;;;24.40;91.10;;;;;;5057902;28;20468;-79
2021/08/12 08:26:35;;;;;;;4.03;3.22;;;24.50;90.90;;;;;;5025350;27;20109;-80
2021/08/12 08:29:02;;;;;;;6.07;4.65;;;24.50;90.80;;;;;;5091279;28;20028;-80
2021/08/12 08:31:28;;;;;;;5.75;3.72;;;24.60;90.40;;;;;;5074325;28;20379;-80
2021/08/12 08:33:56;;;;;;;5.15;3.40;;;24.60;90.40;;;;;;5074220;28;20058;-79
2021/08/12 08:36:25;;;;;;;6.85;4.03;;;24.70;90.40;;;;;;5072212;28;20047;-79
2021/08/12 08:38:52;;;;;;;5.50;3.53;;;24.70;90.20;;;;;;5058841;28;20443;-79
2021/08/12 08:41:18;;;;;;;4.13;2.90;;;24.80;90.20;;;;;;5060054;28;20058;-79
2021/08/12 08:43:47;;;;;;;3.97;3.58;;;25.00;89.70;;;;;;5073174;28;20039;-79
2021/08/12 08:46:16;;;;;;;5.32;2.75;;;25.10;88.90;;;;;;5058459;27;20596;-80
2021/08/12 08:48:44;;;;;;;5.70;3.97;;;25.10;88.60;;;;;;5112867;27;20042;-79
2021/08/12 08:51:11;;;;;;;6.18;3.88;;;25.20;88.00;;;;;;5110315;27;20054;-79
2021/08/12 08:53:39;;;;;;;5.40;4.07;;;25.30;87.70;;;;;;5044699;27;20052;-79
2021/08/12 08:56:06;;;;;;;5.00;3.55;;;25.40;87.30;;;;;;5090621;28;20035;-81
2021/08/12 08:58:34;;;;;;;7.18;4.63;;;25.50;86.40;;;;;;5088717;28;20051;-81
2021/08/12 09:01:00;;;;;;;6.15;4.50;;;25.50;85.80;;;;;;5056534;28;20047;-80
2021/08/12 09:03:26;;;;;;;5.45;3.80;;;25.60;85.30;;;;;;5073452;28;20047;-78
2021/08/12 09:05:53;;;;;;;5.15;3.38;;;25.60;84.90;;;;;;5040437;28;20031;-81
2021/08/12 09:08:20;;;;;;;4.45;3.08;;;25.70;84.90;;;;;;5055616;28;20040;-81
2021/08/12 09:10:49;;;;;;;5.10;3.83;;;25.80;85.00;;;;;;5074661;28;20486;-81
2021/08/12 09:13:15;;;;;;;5.90;2.90;;;26.00;84.00;;;;;;5073034;28;20841;-80
2021/08/12 09:15:45;;;;;;;3.58;2.58;;;26.10;84.10;;;;;;5069529;28;20503;-81
2021/08/12 09:18:19;;;;;;;4.18;2.20;;;26.20;84.10;;;;;;5068894;28;20044;-80
2021/08/12 09:20:49;;;;;;;4.90;3.00;;;26.30;83.50;;;;;;5068151;28;20059;-81
2021/08/12 09:23:21;;;;;;;5.03;2.55;;;26.30;82.10;;;;;;5070828;28;20044;-81
2021/08/12 09:25:49;;;;;;;4.47;3.58;;;26.40;82.30;;;;;;5088989;28;20040;-80
2021/08/12 09:28:27;;;;;;;3.25;2.90;;;26.50;81.90;;;;;;5089728;28;20027;-81
2021/08/12 09:31:02;;;;;;;4.47;2.38;;;26.60;81.10;;;;;;5072656;28;20051;-80
2021/08/12 09:33:32;;;;;;;3.22;2.53;;;26.70;81.00;;;;;;5084987;28;20110;-81
2021/08/12 09:36:00;;;;;;;4.60;2.47;;;26.70;79.50;;;;;;5085904;28;20051;-80
2021/08/12 09:38:27;;;;;;;4.20;2.50;;;26.80;79.30;;;;;;5035720;28;20044;-81
2021/08/12 09:40:56;;;;;;;3.78;1.95;;;26.80;79.30;;;;;;5068505;28;20407;-81
2021/08/12 09:43:28;;;;;;;4.00;2.38;;;27.00;79.50;;;;;;5056873;28;20498;-81
2021/08/12 09:45:55;;;;;;;4.53;2.40;;;27.00;79.40;;;;;;5052000;28;20051;-81
2021/08/12 09:48:23;;;;;;;3.10;1.60;;;27.00;78.30;;;;;;5019487;28;20040;-81
2021/08/12 09:51:01;;;;;;;3.20;2.10;;;27.10;78.40;;;;;;5055824;28;20040;-81
2021/08/12 09:53:28;;;;;;;2.08;1.33;;;27.20;77.70;;;;;;5085827;28;20047;-81
2021/08/12 09:56:04;;;;;;;3.50;2.78;;;27.30;77.60;;;;;;5054452;28;20509;-81
2021/08/12 09:58:35;;;;;;;3.05;2.75;;;27.50;76.70;;;;;;5039249;28;20044;-81
2021/08/12 10:01:25;;;;;;;2.97;2.30;;;27.50;75.80;;;;;;5053124;28;20700;-81
2021/08/12 10:03:54;;;;;;;5.30;2.55;;;27.50;75.20;;;;;;5053685;28;20052;-81
2021/08/12 10:06:24;;;;;;;3.85;2.65;;;27.60;75.30;;;;;;5051911;28;20059;-81
2021/08/12 10:08:51;;;;;;;3.45;2.55;;;27.70;75.20;;;;;;5051189;28;20525;-81
2021/08/12 10:11:30;;;;;;;2.65;2.20;;;27.70;74.20;;;;;;5083818;28;20036;-80
2021/08/12 10:13:58;;;;;;;2.25;1.73;;;27.70;74.30;;;;;;5068942;28;20052;-80
2021/08/12 10:16:26;;;;;;;5.40;2.50;;;27.80;74.60;;;;;;5050949;28;20048;-80
2021/08/12 10:18:55;;;;;;;4.03;2.03;;;27.90;74.50;;;;;;5067842;28;20051;-79
2021/08/12 10:21:22;;;;;;;5.35;2.67;;;28.10;74.30;;;;;;5068865;28;20048;-80
2021/08/12 10:23:59;;;;;;;3.88;2.40;;;28.20;72.70;;;;;;5068679;28;20048;-80
2021/08/12 10:26:28;;;;;;;2.85;1.67;;;28.20;73.00;;;;;;5084914;28;20782;-80
2021/08/12 10:29:04;;;;;;;4.57;2.42;;;28.30;73.10;;;;;;5049744;28;20044;-78
2021/08/12 10:31:31;;;;;;;4.00;2.90;;;28.50;72.60;;;;;;5066319;28;20047;-78
2021/08/12 10:33:58;;;;;;;3.45;2.38;;;28.70;71.00;;;;;;5068235;28;20518;-78
2021/08/12 10:36:24;;;;;;;3.50;2.50;;;28.80;70.60;;;;;;5066833;28;20147;-77
2021/08/12 10:38:54;;;;;;;2.63;2.10;;;28.90;70.50;;;;;;5082692;28;20387;-77
2021/08/12 10:41:22;;;;;;;4.30;2.00;;;29.10;70.20;;;;;;5051897;28;20040;-78
2021/08/12 10:43:55;;;;;;;4.20;2.50;;;29.30;70.30;;;;;;5085632;28;20054;-77
2021/08/12 10:46:38;;;;;;;4.18;2.70;;;29.40;68.30;;;;;;5084074;28;20035;-78
2021/08/12 10:49:24;;;;;;;3.20;2.08;;;29.60;68.40;;;;;;5082031;28;20032;-79
2021/08/12 10:52:08;;;;;;;3.38;2.22;;;29.70;68.10;;;;;;5084360;28;20796;-78
2021/08/12 10:54:39;;;;;;;5.13;2.85;;;29.80;67.90;;;;;;5066592;28;20036;-75
2021/08/12 10:57:21;;;;;;;3.20;1.73;;;29.90;67.60;;;;;;5085335;28;20420;-77
2021/08/12 10:59:50;;;;;;;4.75;2.45;;;30.20;67.30;;;;;;5089730;28;20107;-77
2021/08/12 11:02:29;;;;;;;5.28;2.53;;;30.50;66.50;;;;;;5073935;28;20467;-77
2021/08/12 11:04:58;;;;;;;4.70;2.08;;;30.70;65.00;;;;;;5086941;28;20044;-77
2021/08/12 11:07:39;;;;;;;4.32;2.53;;;30.80;64.70;;;;;;5095778;28;20032;-78
2021/08/12 11:10:15;;;;;;;5.63;2.88;;;30.90;63.90;;;;;;5100885;28;20032;-78
2021/08/12 11:12:53;;;;;;;4.95;2.17;;;30.90;63.20;;;;;;5075637;28;20356;-78
2021/08/12 11:15:41;;;;;;;3.85;2.70;;;31.10;63.40;;;;;;5075268;28;20048;-79
2021/08/12 11:18:11;;;;;;;4.18;2.35;;;31.40;62.20;;;;;;5078958;28;20495;-79
2021/08/12 11:20:40;;;;;;;3.00;2.17;;;31.60;61.70;;;;;;5065105;28;20047;-79
2021/08/12 11:23:19;;;;;;;6.60;2.17;;;31.90;62.00;;;;;;5090466;28;20035;-79
2021/08/12 11:26:04;;;;;;;3.30;1.95;;;32.20;60.50;;;;;;5049744;28;20401;-79
2021/08/12 11:28:40;;;;;;;2.53;1.90;;;32.50;59.90;;;;;;5066413;28;20032;-80
2021/08/12 11:31:23;;;;;;;4.10;1.83;;;32.70;59.40;;;;;;5066878;28;20517;-79
2021/08/12 11:33:51;;;;;;;4.93;2.25;;;32.70;58.60;;;;;;5083976;28;20032;-79
2021/08/12 11:36:27;;;;;;;3.55;2.20;;;32.70;58.30;;;;;;5065712;28;20044;-77
2021/08/12 11:39:05;;;;;;;6.65;2.42;;;32.80;57.90;;;;;;5049297;28;20266;-77
2021/08/12 11:41:38;;;;;;;4.00;2.33;;;32.70;57.50;;;;;;5083552;28;20042;-77
2021/08/12 11:44:16;;;;;;;5.55;3.00;;;32.70;57.70;;;;;;5086752;28;20051;-78
2021/08/12 11:46:44;;;;;;;3.67;2.67;;;32.90;57.00;;;;;;5056197;28;20052;-78
2021/08/12 11:49:16;;;;;;;2.25;2.00;;;32.90;56.20;;;;;;5056763;28;20051;-78
2021/08/12 11:51:43;;;;;;;3.47;1.55;;;32.70;56.70;;;;;;5053890;28;20043;-78
2021/08/12 11:54:11;;;;;;;2.55;1.90;;;32.90;56.60;;;;;;5054762;28;20093;-78
2021/08/12 11:56:38;;;;;;;4.55;2.38;;;33.20;55.80;;;;;;5087554;28;20509;-78
2021/08/12 11:59:05;;;;;;;4.43;2.50;;;33.40;56.30;;;;;;5034662;28;20048;-78
2021/08/12 12:01:34;;;;;;;3.45;1.80;;;33.70;55.50;;;;;;5054558;28;20047;-78
2021/08/12 12:04:06;;;;;;;2.38;1.73;;;33.70;55.70;;;;;;5053406;28;20464;-79
2021/08/12 12:06:38;;;;;;;3.97;2.88;;;33.50;55.00;;;;;;5070873;28;20051;-80
2021/08/12 12:09:18;;;;;;;3.95;2.03;;;33.60;54.50;;;;;;5067135;28;20943;-80
2021/08/12 12:11:56;;;;;;;4.30;2.30;;;33.60;53.90;;;;;;5069733;28;20047;-79
2021/08/12 12:14:27;;;;;;;3.67;2.38;;;33.70;53.40;;;;;;5088576;28;20039;-80
2021/08/12 12:17:23;;;;;;;2.95;2.05;;;33.80;53.20;;;;;;5088514;28;20915;-78
2021/08/12 12:20:10;;;;;;;2.65;2.00;;;34.00;53.90;;;;;;5071425;28;20051;-79
2021/08/12 12:22:40;;;;;;;2.75;1.98;;;34.40;52.30;;;;;;5089797;28;20386;-78
2021/08/12 12:25:12;;;;;;;3.05;2.50;;;34.80;52.20;;;;;;5072422;28;20032;-78
2021/08/12 12:27:40;;;;;;;3.28;2.13;;;34.90;51.80;;;;;;5055753;28;20040;-79
2021/08/12 12:30:12;;;;;;;3.65;2.25;;;34.80;51.10;;;;;;5071558;27;20047;-79
2021/08/12 12:32:41;;;;;;;4.65;2.72;;;34.60;51.30;;;;;;5090369;28;20094;-79
2021/08/12 12:35:09;;;;;;;3.08;2.47;;;34.60;51.90;;;;;;5108713;27;20046;-80
2021/08/12 12:37:39;;;;;;;4.55;2.13;;;34.60;51.50;;;;;;5088537;28;20628;-79
2021/08/12 12:40:15;;;;;;;2.50;1.88;;;34.60;51.50;;;;;;5088638;28;20043;-79
2021/08/12 12:42:42;;;;;;;3.22;2.30;;;34.80;51.30;;;;;;5093324;28;20040;-79
2021/08/12 12:45:13;;;;;;;3.90;2.50;;;34.70;50.90;;;;;;5071206;28;20043;-79
2021/08/12 12:47:39;;;;;;;2.97;2.40;;;34.30;51.50;;;;;;5056791;28;20047;-80
2021/08/12 12:50:26;;;;;;;3.03;1.80;;;33.70;51.80;;;;;;5109994;27;20068;-78
2021/08/12 12:53:04;;;;;;;3.80;2.55;;;33.40;52.40;;;;;;5071843;28;20439;-78
2021/08/12 12:55:35;;;;;;;5.68;2.58;;;33.40;52.90;;;;;;5104829;28;20038;-80